sensor_id;sensor_type;location;lat;lon;timestamp;temperature;humidity
20416;DHT22;10367;52.202;5.996;2023-02-28T00:01:28;1.00;99.90
20416;DHT22;10367;52.202;5.996;2023-02-28T00:04:04;1.00;99.90
20416;DHT22;10367;52.202;5.996;2023-02-28T00:06:36;1.10;99.90
20416;DHT22;10367;52.202;5.996;2023-02-28T00:09:05;1.10;99.90
20416;DHT22;10367;52.202;5.996;2023-02-28T00:11:40;1.10;99.90
20416;DHT22;10367;52.202;5.996;2023-02-28T00:14:09;1.20;99.90
20416;DHT22;10367;52.202;5.996;2023-02-28T00:16:42;1.20;99.90
20416;DHT22;10367;52.202;5.996;2023-02-28T00:19:15;1.30;99.90
20416;DHT22;10367;52.202;5.996;2023-02-28T00:21:44;1.30;99.90
20416;DHT22;10367;52.202;5.996;2023-02-28T00:24:13;1.40;99.90
20416;DHT22;10367;52.202;5.996;2023-02-28T00:26:42;1.40;99.90
20416;DHT22;10367;52.202;5.996;2023-02-28T00:29:11;1.50;99.90
20416;DHT22;10367;52.202;5.996;2023-02-28T00:31:43;1.50;99.90
20416;DHT22;10367;52.202;5.996;2023-02-28T00:34:11;1.50;99.90
20416;DHT22;10367;52.202;5.996;2023-02-28T00:36:43;1.60;99.90
20416;DHT22;10367;52.202;5.996;2023-02-28T00:39:17;1.60;99.90
20416;DHT22;10367;52.202;5.996;2023-02-28T00:41:46;1.60;99.90
20416;DHT22;10367;52.202;5.996;2023-02-28T00:44:15;1.60;99.90
20416;DHT22;10367;52.202;5.996;2023-02-28T00:46:44;1.70;99.90
20416;DHT22;10367;52.202;5.996;2023-02-28T00:49:12;1.70;99.90
20416;DHT22;10367;52.202;5.996;2023-02-28T00:51:45;1.70;99.90
20416;DHT22;10367;52.202;5.996;2023-02-28T00:54:20;1.70;99.90
20416;DHT22;10367;52.202;5.996;2023-02-28T00:56:49;1.70;99.90
20416;DHT22;10367;52.202;5.996;2023-02-28T00:59:19;1.80;99.90
20416;DHT22;10367;52.202;5.996;2023-02-28T01:01:51;1.80;99.90
20416;DHT22;10367;52.202;5.996;2023-02-28T01:04:20;1.80;99.90
20416;DHT22;10367;52.202;5.996;2023-02-28T01:06:51;1.80;99.90
20416;DHT22;10367;52.202;5.996;2023-02-28T01:09:20;1.80;99.90
20416;DHT22;10367;52.202;5.996;2023-02-28T01:11:53;1.80;99.90
20416;DHT22;10367;52.202;5.996;2023-02-28T01:14:22;1.80;99.90
20416;DHT22;10367;52.202;5.996;2023-02-28T01:16:51;1.80;99.90
20416;DHT22;10367;52.202;5.996;2023-02-28T01:19:20;1.80;99.90
20416;DHT22;10367;52.202;5.996;2023-02-28T01:21:51;1.80;99.90
20416;DHT22;10367;52.202;5.996;2023-02-28T01:24:21;1.90;99.90
20416;DHT22;10367;52.202;5.996;2023-02-28T01:26:56;1.90;99.90
20416;DHT22;10367;52.202;5.996;2023-02-28T01:29:26;1.90;99.90
20416;DHT22;10367;52.202;5.996;2023-02-28T01:31:56;1.90;99.90
20416;DHT22;10367;52.202;5.996;2023-02-28T01:34:28;1.90;99.90
20416;DHT22;10367;52.202;5.996;2023-02-28T01:37:00;1.90;99.90
20416;DHT22;10367;52.202;5.996;2023-02-28T01:39:29;1.90;99.90
20416;DHT22;10367;52.202;5.996;2023-02-28T01:42:00;1.90;99.90
20416;DHT22;10367;52.202;5.996;2023-02-28T01:44:58;1.90;99.90
20416;DHT22;10367;52.202;5.996;2023-02-28T01:47:30;1.90;99.90
20416;DHT22;10367;52.202;5.996;2023-02-28T01:50:02;2.00;99.90
20416;DHT22;10367;52.202;5.996;2023-02-28T01:52:44;1.90;99.90
20416;DHT22;10367;52.202;5.996;2023-02-28T01:55:15;1.90;99.90
20416;DHT22;10367;52.202;5.996;2023-02-28T01:57:56;2.00;99.90
20416;DHT22;10367;52.202;5.996;2023-02-28T02:00:29;2.00;99.90
20416;DHT22;10367;52.202;5.996;2023-02-28T02:03:08;2.00;99.90
20416;DHT22;10367;52.202;5.996;2023-02-28T02:05:39;2.00;99.90
20416;DHT22;10367;52.202;5.996;2023-02-28T02:08:22;2.00;99.90
20416;DHT22;10367;52.202;5.996;2023-02-28T02:10:54;2.00;99.90
20416;DHT22;10367;52.202;5.996;2023-02-28T02:13:38;2.00;99.90
20416;DHT22;10367;52.202;5.996;2023-02-28T02:16:18;2.00;99.90
20416;DHT22;10367;52.202;5.996;2023-02-28T02:18:53;2.00;99.90
20416;DHT22;10367;52.202;5.996;2023-02-28T02:21:47;2.00;99.90
20416;DHT22;10367;52.202;5.996;2023-02-28T02:27:55;2.00;99.90
20416;DHT22;10367;52.202;5.996;2023-02-28T02:30:44;2.00;99.90
20416;DHT22;10367;52.202;5.996;2023-02-28T02:36:24;2.10;99.90
20416;DHT22;10367;52.202;5.996;2023-02-28T02:38:58;2.10;99.90
20416;DHT22;10367;52.202;5.996;2023-02-28T02:41:36;2.10;99.90
20416;DHT22;10367;52.202;5.996;2023-02-28T02:44:12;2.10;99.90
20416;DHT22;10367;52.202;5.996;2023-02-28T02:46:48;2.10;99.90
20416;DHT22;10367;52.202;5.996;2023-02-28T02:49:25;2.10;99.90
20416;DHT22;10367;52.202;5.996;2023-02-28T02:52:02;2.00;99.90
20416;DHT22;10367;52.202;5.996;2023-02-28T02:54:40;2.10;99.90
20416;DHT22;10367;52.202;5.996;2023-02-28T02:57:17;2.10;99.90
20416;DHT22;10367;52.202;5.996;2023-02-28T02:59:50;2.10;99.90
20416;DHT22;10367;52.202;5.996;2023-02-28T03:02:21;2.20;99.90
20416;DHT22;10367;52.202;5.996;2023-02-28T03:04:52;2.10;99.90
20416;DHT22;10367;52.202;5.996;2023-02-28T03:07:26;2.10;99.90
20416;DHT22;10367;52.202;5.996;2023-02-28T03:09:56;2.10;99.90
20416;DHT22;10367;52.202;5.996;2023-02-28T03:12:37;2.10;99.90
20416;DHT22;10367;52.202;5.996;2023-02-28T03:15:13;2.10;99.90
20416;DHT22;10367;52.202;5.996;2023-02-28T03:18:00;2.10;99.90
20416;DHT22;10367;52.202;5.996;2023-02-28T03:20:37;2.10;99.90
20416;DHT22;10367;52.202;5.996;2023-02-28T03:23:16;2.00;99.90
20416;DHT22;10367;52.202;5.996;2023-02-28T03:25:56;2.10;99.90
20416;DHT22;10367;52.202;5.996;2023-02-28T03:28:32;2.10;99.90
20416;DHT22;10367;52.202;5.996;2023-02-28T03:31:13;2.10;99.90
20416;DHT22;10367;52.202;5.996;2023-02-28T03:33:50;2.10;99.90
20416;DHT22;10367;52.202;5.996;2023-02-28T03:36:28;2.10;99.90
20416;DHT22;10367;52.202;5.996;2023-02-28T03:39:02;2.10;99.90
20416;DHT22;10367;52.202;5.996;2023-02-28T03:41:40;2.10;99.90
20416;DHT22;10367;52.202;5.996;2023-02-28T03:44:19;2.10;99.90
20416;DHT22;10367;52.202;5.996;2023-02-28T03:46:56;2.10;99.90
20416;DHT22;10367;52.202;5.996;2023-02-28T03:49:40;2.00;99.90
20416;DHT22;10367;52.202;5.996;2023-02-28T03:52:12;2.10;99.90
20416;DHT22;10367;52.202;5.996;2023-02-28T03:54:46;2.00;99.90
20416;DHT22;10367;52.202;5.996;2023-02-28T03:57:25;2.10;99.90
20416;DHT22;10367;52.202;5.996;2023-02-28T04:00:00;2.10;99.90
20416;DHT22;10367;52.202;5.996;2023-02-28T04:02:33;2.00;99.90
20416;DHT22;10367;52.202;5.996;2023-02-28T04:05:05;2.00;99.90
20416;DHT22;10367;52.202;5.996;2023-02-28T04:07:38;2.00;99.90
20416;DHT22;10367;52.202;5.996;2023-02-28T04:10:13;2.00;99.90
20416;DHT22;10367;52.202;5.996;2023-02-28T04:12:45;2.00;99.90
20416;DHT22;10367;52.202;5.996;2023-02-28T04:15:23;2.00;99.90
20416;DHT22;10367;52.202;5.996;2023-02-28T04:17:59;1.90;99.90
20416;DHT22;10367;52.202;5.996;2023-02-28T04:20:31;1.90;99.90
20416;DHT22;10367;52.202;5.996;2023-02-28T04:23:01;1.90;99.90
20416;DHT22;10367;52.202;5.996;2023-02-28T04:25:34;1.90;99.90
20416;DHT22;10367;52.202;5.996;2023-02-28T04:28:08;2.00;99.90
20416;DHT22;10367;52.202;5.996;2023-02-28T04:30:40;1.90;99.90
20416;DHT22;10367;52.202;5.996;2023-02-28T04:33:10;1.90;99.90
20416;DHT22;10367;52.202;5.996;2023-02-28T04:35:39;1.90;99.90
20416;DHT22;10367;52.202;5.996;2023-02-28T04:38:13;1.90;99.90
20416;DHT22;10367;52.202;5.996;2023-02-28T04:40:44;1.90;99.90
20416;DHT22;10367;52.202;5.996;2023-02-28T04:43:16;1.90;99.90
20416;DHT22;10367;52.202;5.996;2023-02-28T04:45:45;1.90;99.90
20416;DHT22;10367;52.202;5.996;2023-02-28T04:48:13;1.90;99.90
20416;DHT22;10367;52.202;5.996;2023-02-28T04:50:42;1.90;99.90
20416;DHT22;10367;52.202;5.996;2023-02-28T04:53:11;1.90;99.90
20416;DHT22;10367;52.202;5.996;2023-02-28T04:55:41;1.80;99.90
20416;DHT22;10367;52.202;5.996;2023-02-28T04:58:14;1.80;99.90
20416;DHT22;10367;52.202;5.996;2023-02-28T05:00:43;1.80;99.90
20416;DHT22;10367;52.202;5.996;2023-02-28T05:03:12;1.80;99.90
20416;DHT22;10367;52.202;5.996;2023-02-28T05:05:41;1.90;99.90
20416;DHT22;10367;52.202;5.996;2023-02-28T05:08:12;1.90;99.90
20416;DHT22;10367;52.202;5.996;2023-02-28T05:10:41;1.80;99.90
20416;DHT22;10367;52.202;5.996;2023-02-28T05:13:13;1.80;99.90
20416;DHT22;10367;52.202;5.996;2023-02-28T05:15:42;1.80;99.90
20416;DHT22;10367;52.202;5.996;2023-02-28T05:18:11;1.90;99.90
20416;DHT22;10367;52.202;5.996;2023-02-28T05:20:39;1.90;99.90
20416;DHT22;10367;52.202;5.996;2023-02-28T05:23:08;1.90;99.90
20416;DHT22;10367;52.202;5.996;2023-02-28T05:25:43;1.90;99.90
20416;DHT22;10367;52.202;5.996;2023-02-28T05:28:22;1.90;99.90
20416;DHT22;10367;52.202;5.996;2023-02-28T05:30:51;1.90;99.90
20416;DHT22;10367;52.202;5.996;2023-02-28T05:33:20;1.90;99.90
20416;DHT22;10367;52.202;5.996;2023-02-28T05:35:50;1.90;99.90
20416;DHT22;10367;52.202;5.996;2023-02-28T05:38:22;1.90;99.90
20416;DHT22;10367;52.202;5.996;2023-02-28T05:40:50;1.90;99.90
20416;DHT22;10367;52.202;5.996;2023-02-28T05:43:25;1.90;99.90
20416;DHT22;10367;52.202;5.996;2023-02-28T05:45:56;1.90;99.90
20416;DHT22;10367;52.202;5.996;2023-02-28T05:48:25;1.90;99.90
20416;DHT22;10367;52.202;5.996;2023-02-28T05:50:54;1.90;99.90
20416;DHT22;10367;52.202;5.996;2023-02-28T05:53:23;1.90;99.90
20416;DHT22;10367;52.202;5.996;2023-02-28T05:55:52;1.90;99.90
20416;DHT22;10367;52.202;5.996;2023-02-28T05:58:25;1.90;99.90
20416;DHT22;10367;52.202;5.996;2023-02-28T06:00:59;1.90;99.90
20416;DHT22;10367;52.202;5.996;2023-02-28T06:03:29;2.00;99.90
20416;DHT22;10367;52.202;5.996;2023-02-28T06:06:01;1.90;99.90
20416;DHT22;10367;52.202;5.996;2023-02-28T06:08:29;1.90;99.90
20416;DHT22;10367;52.202;5.996;2023-02-28T06:11:03;2.00;99.90
20416;DHT22;10367;52.202;5.996;2023-02-28T06:13:34;2.00;99.90
20416;DHT22;10367;52.202;5.996;2023-02-28T06:16:04;1.90;99.90
20416;DHT22;10367;52.202;5.996;2023-02-28T06:18:36;1.90;99.90
20416;DHT22;10367;52.202;5.996;2023-02-28T06:21:06;1.90;99.90
20416;DHT22;10367;52.202;5.996;2023-02-28T06:23:37;1.90;99.90
20416;DHT22;10367;52.202;5.996;2023-02-28T06:26:12;1.90;99.90
20416;DHT22;10367;52.202;5.996;2023-02-28T06:28:43;1.90;99.90
20416;DHT22;10367;52.202;5.996;2023-02-28T06:31:13;2.00;99.90
20416;DHT22;10367;52.202;5.996;2023-02-28T06:33:43;1.90;99.90
20416;DHT22;10367;52.202;5.996;2023-02-28T06:36:22;2.00;99.90
20416;DHT22;10367;52.202;5.996;2023-02-28T06:38:53;2.00;99.90
20416;DHT22;10367;52.202;5.996;2023-02-28T06:41:24;2.00;99.90
20416;DHT22;10367;52.202;5.996;2023-02-28T06:43:56;2.00;99.90
20416;DHT22;10367;52.202;5.996;2023-02-28T06:46:28;2.00;99.90
20416;DHT22;10367;52.202;5.996;2023-02-28T06:48:56;2.10;99.90
20416;DHT22;10367;52.202;5.996;2023-02-28T06:51:27;2.10;99.90
20416;DHT22;10367;52.202;5.996;2023-02-28T06:53:58;2.10;99.90
20416;DHT22;10367;52.202;5.996;2023-02-28T06:56:27;2.10;99.90
20416;DHT22;10367;52.202;5.996;2023-02-28T06:59:01;2.10;99.90
20416;DHT22;10367;52.202;5.996;2023-02-28T07:01:32;2.20;99.90
20416;DHT22;10367;52.202;5.996;2023-02-28T07:04:05;2.20;99.90
20416;DHT22;10367;52.202;5.996;2023-02-28T07:06:37;2.30;99.90
20416;DHT22;10367;52.202;5.996;2023-02-28T07:09:11;2.30;99.90
20416;DHT22;10367;52.202;5.996;2023-02-28T07:11:42;2.40;99.90
20416;DHT22;10367;52.202;5.996;2023-02-28T07:14:12;2.50;99.90
20416;DHT22;10367;52.202;5.996;2023-02-28T07:16:41;2.50;99.90
20416;DHT22;10367;52.202;5.996;2023-02-28T07:19:14;2.50;99.90
20416;DHT22;10367;52.202;5.996;2023-02-28T07:21:43;2.60;99.90
20416;DHT22;10367;52.202;5.996;2023-02-28T07:24:14;2.70;99.90
20416;DHT22;10367;52.202;5.996;2023-02-28T07:26:47;2.70;99.90
20416;DHT22;10367;52.202;5.996;2023-02-28T07:29:18;2.80;99.90
20416;DHT22;10367;52.202;5.996;2023-02-28T07:31:49;2.80;99.90
20416;DHT22;10367;52.202;5.996;2023-02-28T07:34:21;2.80;99.90
20416;DHT22;10367;52.202;5.996;2023-02-28T07:36:55;2.80;99.90
20416;DHT22;10367;52.202;5.996;2023-02-28T07:39:28;2.80;99.90
20416;DHT22;10367;52.202;5.996;2023-02-28T07:42:04;2.90;99.90
20416;DHT22;10367;52.202;5.996;2023-02-28T07:44:35;3.00;99.90
20416;DHT22;10367;52.202;5.996;2023-02-28T07:47:10;3.10;99.90
20416;DHT22;10367;52.202;5.996;2023-02-28T07:49:41;3.20;99.90
20416;DHT22;10367;52.202;5.996;2023-02-28T07:52:10;3.30;99.90
20416;DHT22;10367;52.202;5.996;2023-02-28T07:54:39;3.50;99.90
20416;DHT22;10367;52.202;5.996;2023-02-28T07:57:20;3.70;99.90
20416;DHT22;10367;52.202;5.996;2023-02-28T07:59:58;3.80;99.90
20416;DHT22;10367;52.202;5.996;2023-02-28T08:02:28;4.00;99.90
20416;DHT22;10367;52.202;5.996;2023-02-28T08:05:05;4.00;99.90
20416;DHT22;10367;52.202;5.996;2023-02-28T08:07:35;4.10;99.90
20416;DHT22;10367;52.202;5.996;2023-02-28T08:10:10;4.00;99.90
20416;DHT22;10367;52.202;5.996;2023-02-28T08:12:42;4.00;99.90
20416;DHT22;10367;52.202;5.996;2023-02-28T08:15:15;4.10;99.90
20416;DHT22;10367;52.202;5.996;2023-02-28T08:17:44;4.20;99.90
20416;DHT22;10367;52.202;5.996;2023-02-28T08:20:13;4.40;99.90
20416;DHT22;10367;52.202;5.996;2023-02-28T08:22:48;4.30;99.90
20416;DHT22;10367;52.202;5.996;2023-02-28T08:25:17;4.40;99.90
20416;DHT22;10367;52.202;5.996;2023-02-28T08:27:50;4.40;99.90
20416;DHT22;10367;52.202;5.996;2023-02-28T08:30:23;4.50;99.90
20416;DHT22;10367;52.202;5.996;2023-02-28T08:32:51;4.50;99.90
20416;DHT22;10367;52.202;5.996;2023-02-28T08:35:21;4.60;99.90
20416;DHT22;10367;52.202;5.996;2023-02-28T08:37:51;4.50;99.90
20416;DHT22;10367;52.202;5.996;2023-02-28T08:40:26;4.40;99.90
20416;DHT22;10367;52.202;5.996;2023-02-28T08:42:54;4.30;99.90
20416;DHT22;10367;52.202;5.996;2023-02-28T08:45:29;4.10;99.90
20416;DHT22;10367;52.202;5.996;2023-02-28T08:48:04;4.00;99.90
20416;DHT22;10367;52.202;5.996;2023-02-28T08:50:55;3.90;99.90
20416;DHT22;10367;52.202;5.996;2023-02-28T08:53:38;3.90;99.90
20416;DHT22;10367;52.202;5.996;2023-02-28T08:56:09;3.80;99.90
20416;DHT22;10367;52.202;5.996;2023-02-28T08:58:38;3.70;99.90
20416;DHT22;10367;52.202;5.996;2023-02-28T09:01:11;3.70;99.90
20416;DHT22;10367;52.202;5.996;2023-02-28T09:03:55;3.70;99.90
20416;DHT22;10367;52.202;5.996;2023-02-28T09:06:26;3.70;99.90
20416;DHT22;10367;52.202;5.996;2023-02-28T09:08:57;3.80;99.90
20416;DHT22;10367;52.202;5.996;2023-02-28T09:11:28;3.90;99.90
20416;DHT22;10367;52.202;5.996;2023-02-28T09:13:58;3.90;99.90
20416;DHT22;10367;52.202;5.996;2023-02-28T09:16:29;3.90;99.90
20416;DHT22;10367;52.202;5.996;2023-02-28T09:18:59;4.00;99.90
20416;DHT22;10367;52.202;5.996;2023-02-28T09:21:28;4.10;99.90
20416;DHT22;10367;52.202;5.996;2023-02-28T09:23:57;4.30;99.90
20416;DHT22;10367;52.202;5.996;2023-02-28T09:26:27;4.40;99.90
20416;DHT22;10367;52.202;5.996;2023-02-28T09:29:09;4.60;99.90
20416;DHT22;10367;52.202;5.996;2023-02-28T09:31:39;4.90;99.90
20416;DHT22;10367;52.202;5.996;2023-02-28T09:34:08;4.90;99.90
20416;DHT22;10367;52.202;5.996;2023-02-28T09:36:37;5.00;99.90
20416;DHT22;10367;52.202;5.996;2023-02-28T09:39:13;5.00;99.90
20416;DHT22;10367;52.202;5.996;2023-02-28T09:41:44;4.90;99.90
20416;DHT22;10367;52.202;5.996;2023-02-28T09:44:24;4.90;99.90
20416;DHT22;10367;52.202;5.996;2023-02-28T09:47:00;4.80;99.90
20416;DHT22;10367;52.202;5.996;2023-02-28T09:49:35;4.80;99.90
20416;DHT22;10367;52.202;5.996;2023-02-28T09:52:10;4.90;99.90
20416;DHT22;10367;52.202;5.996;2023-02-28T09:54:38;5.00;99.90
20416;DHT22;10367;52.202;5.996;2023-02-28T09:57:19;5.00;99.90
20416;DHT22;10367;52.202;5.996;2023-02-28T09:59:57;5.00;99.90
20416;DHT22;10367;52.202;5.996;2023-02-28T10:05:27;5.00;99.90
20416;DHT22;10367;52.202;5.996;2023-02-28T10:08:03;5.10;99.90
20416;DHT22;10367;52.202;5.996;2023-02-28T10:10:39;5.20;99.90
20416;DHT22;10367;52.202;5.996;2023-02-28T10:13:16;5.30;99.90
20416;DHT22;10367;52.202;5.996;2023-02-28T10:15:49;5.40;99.90
20416;DHT22;10367;52.202;5.996;2023-02-28T10:18:24;5.40;99.90
20416;DHT22;10367;52.202;5.996;2023-02-28T10:20:54;5.50;99.90
20416;DHT22;10367;52.202;5.996;2023-02-28T10:23:27;5.60;99.90
20416;DHT22;10367;52.202;5.996;2023-02-28T10:25:59;5.60;99.90
20416;DHT22;10367;52.202;5.996;2023-02-28T10:28:29;5.60;99.90
20416;DHT22;10367;52.202;5.996;2023-02-28T10:30:59;5.80;99.90
20416;DHT22;10367;52.202;5.996;2023-02-28T10:33:31;5.90;99.90
20416;DHT22;10367;52.202;5.996;2023-02-28T10:36:03;6.00;99.90
20416;DHT22;10367;52.202;5.996;2023-02-28T10:38:36;5.90;99.90
20416;DHT22;10367;52.202;5.996;2023-02-28T10:41:06;6.00;99.90
20416;DHT22;10367;52.202;5.996;2023-02-28T10:43:36;5.90;99.90
20416;DHT22;10367;52.202;5.996;2023-02-28T10:46:13;6.20;99.90
20416;DHT22;10367;52.202;5.996;2023-02-28T10:48:45;6.20;99.90
20416;DHT22;10367;52.202;5.996;2023-02-28T10:51:18;6.10;99.90
20416;DHT22;10367;52.202;5.996;2023-02-28T10:53:51;6.30;99.90
20416;DHT22;10367;52.202;5.996;2023-02-28T10:56:29;6.40;99.90
20416;DHT22;10367;52.202;5.996;2023-02-28T10:59:00;6.50;99.90
20416;DHT22;10367;52.202;5.996;2023-02-28T11:01:37;6.50;99.90
20416;DHT22;10367;52.202;5.996;2023-02-28T11:04:19;6.60;99.90
20416;DHT22;10367;52.202;5.996;2023-02-28T11:06:57;6.60;99.90
20416;DHT22;10367;52.202;5.996;2023-02-28T11:09:29;6.70;99.90
20416;DHT22;10367;52.202;5.996;2023-02-28T11:11:59;6.90;99.90
20416;DHT22;10367;52.202;5.996;2023-02-28T11:14:30;6.90;99.90
20416;DHT22;10367;52.202;5.996;2023-02-28T11:17:12;6.90;99.90
20416;DHT22;10367;52.202;5.996;2023-02-28T11:19:45;6.80;99.90
20416;DHT22;10367;52.202;5.996;2023-02-28T11:22:18;6.50;99.90
20416;DHT22;10367;52.202;5.996;2023-02-28T11:24:50;6.60;99.90
20416;DHT22;10367;52.202;5.996;2023-02-28T11:27:45;6.70;99.90
20416;DHT22;10367;52.202;5.996;2023-02-28T11:30:35;6.80;99.90
20416;DHT22;10367;52.202;5.996;2023-02-28T11:33:22;7.00;99.90
20416;DHT22;10367;52.202;5.996;2023-02-28T11:35:55;7.00;98.50
20416;DHT22;10367;52.202;5.996;2023-02-28T11:38:26;6.90;99.90
20416;DHT22;10367;52.202;5.996;2023-02-28T11:41:28;6.90;99.90
20416;DHT22;10367;52.202;5.996;2023-02-28T11:44:15;6.90;96.80
20416;DHT22;10367;52.202;5.996;2023-02-28T11:46:56;6.70;98.60
20416;DHT22;10367;52.202;5.996;2023-02-28T11:49:32;6.90;99.90
20416;DHT22;10367;52.202;5.996;2023-02-28T11:52:24;7.20;99.90
20416;DHT22;10367;52.202;5.996;2023-02-28T11:55:11;7.50;99.90
20416;DHT22;10367;52.202;5.996;2023-02-28T11:58:13;7.40;99.90
20416;DHT22;10367;52.202;5.996;2023-02-28T12:00:55;7.20;99.50
20416;DHT22;10367;52.202;5.996;2023-02-28T12:03:33;7.40;99.90
20416;DHT22;10367;52.202;5.996;2023-02-28T12:06:16;7.70;99.90
20416;DHT22;10367;52.202;5.996;2023-02-28T12:09:02;8.00;99.90
20416;DHT22;10367;52.202;5.996;2023-02-28T12:11:47;7.60;97.00
20416;DHT22;10367;52.202;5.996;2023-02-28T12:14:39;7.30;99.80
20416;DHT22;10367;52.202;5.996;2023-02-28T12:17:21;7.40;94.10
20416;DHT22;10367;52.202;5.996;2023-02-28T12:19:59;7.50;96.80
20416;DHT22;10367;52.202;5.996;2023-02-28T12:22:38;7.40;98.80
20416;DHT22;10367;52.202;5.996;2023-02-28T12:25:40;7.40;97.60
20416;DHT22;10367;52.202;5.996;2023-02-28T12:28:17;7.70;99.50
20416;DHT22;10367;52.202;5.996;2023-02-28T12:30:56;8.00;96.80
20416;DHT22;10367;52.202;5.996;2023-02-28T12:33:28;7.90;97.90
20416;DHT22;10367;52.202;5.996;2023-02-28T12:36:04;7.90;96.10
20416;DHT22;10367;52.202;5.996;2023-02-28T12:38:37;7.70;96.60
20416;DHT22;10367;52.202;5.996;2023-02-28T12:41:13;7.50;95.40
20416;DHT22;10367;52.202;5.996;2023-02-28T12:43:46;7.20;93.70
20416;DHT22;10367;52.202;5.996;2023-02-28T12:46:28;7.40;96.80
20416;DHT22;10367;52.202;5.996;2023-02-28T12:49:02;7.50;94.10
20416;DHT22;10367;52.202;5.996;2023-02-28T12:51:37;7.70;95.70
20416;DHT22;10367;52.202;5.996;2023-02-28T12:54:21;7.80;95.00
20416;DHT22;10367;52.202;5.996;2023-02-28T12:57:06;7.70;94.70
20416;DHT22;10367;52.202;5.996;2023-02-28T12:59:44;7.60;93.50
20416;DHT22;10367;52.202;5.996;2023-02-28T13:09:00;8.30;95.40
20416;DHT22;10367;52.202;5.996;2023-02-28T13:11:49;8.20;92.10
20416;DHT22;10367;52.202;5.996;2023-02-28T13:14:26;8.50;95.40
20416;DHT22;10367;52.202;5.996;2023-02-28T13:17:01;8.80;95.50
20416;DHT22;10367;52.202;5.996;2023-02-28T13:19:34;8.80;92.20
20416;DHT22;10367;52.202;5.996;2023-02-28T13:22:16;8.40;93.90
20416;DHT22;10367;52.202;5.996;2023-02-28T13:24:48;8.60;95.80
20416;DHT22;10367;52.202;5.996;2023-02-28T13:27:31;9.00;96.40
20416;DHT22;10367;52.202;5.996;2023-02-28T13:33:25;8.90;96.00
20416;DHT22;10367;52.202;5.996;2023-02-28T13:36:08;8.40;94.30
20416;DHT22;10367;52.202;5.996;2023-02-28T13:38:41;8.00;96.30
20416;DHT22;10367;52.202;5.996;2023-02-28T13:41:47;8.00;95.50
20416;DHT22;10367;52.202;5.996;2023-02-28T13:44:18;8.00;90.20
20416;DHT22;10367;52.202;5.996;2023-02-28T13:50:36;8.30;92.50
20416;DHT22;10367;52.202;5.996;2023-02-28T13:53:29;8.30;90.10
20416;DHT22;10367;52.202;5.996;2023-02-28T13:56:07;8.10;91.30
20416;DHT22;10367;52.202;5.996;2023-02-28T13:58:53;8.00;93.30
20416;DHT22;10367;52.202;5.996;2023-02-28T14:01:40;8.20;92.50
20416;DHT22;10367;52.202;5.996;2023-02-28T14:04:40;8.50;93.40
20416;DHT22;10367;52.202;5.996;2023-02-28T14:07:25;8.20;86.00
20416;DHT22;10367;52.202;5.996;2023-02-28T14:10:08;8.20;91.30
20416;DHT22;10367;52.202;5.996;2023-02-28T14:16:02;8.60;91.90
20416;DHT22;10367;52.202;5.996;2023-02-28T14:18:37;8.80;91.00
20416;DHT22;10367;52.202;5.996;2023-02-28T14:21:14;8.50;91.00
20416;DHT22;10367;52.202;5.996;2023-02-28T14:24:28;8.40;90.70
20416;DHT22;10367;52.202;5.996;2023-02-28T14:27:29;8.30;88.80
20416;DHT22;10367;52.202;5.996;2023-02-28T14:30:29;8.50;89.40
20416;DHT22;10367;52.202;5.996;2023-02-28T14:33:17;8.60;88.20
20416;DHT22;10367;52.202;5.996;2023-02-28T14:36:02;8.80;90.20
20416;DHT22;10367;52.202;5.996;2023-02-28T14:38:40;8.70;88.90
20416;DHT22;10367;52.202;5.996;2023-02-28T14:41:24;8.40;84.20
20416;DHT22;10367;52.202;5.996;2023-02-28T14:44:00;8.30;88.10
20416;DHT22;10367;52.202;5.996;2023-02-28T14:46:35;8.50;90.30
20416;DHT22;10367;52.202;5.996;2023-02-28T14:49:17;8.60;87.50
20416;DHT22;10367;52.202;5.996;2023-02-28T14:52:05;8.60;88.30
20416;DHT22;10367;52.202;5.996;2023-02-28T14:54:41;8.40;85.70
20416;DHT22;10367;52.202;5.996;2023-02-28T14:57:26;8.10;84.90
20416;DHT22;10367;52.202;5.996;2023-02-28T15:00:00;8.10;85.90
20416;DHT22;10367;52.202;5.996;2023-02-28T15:02:41;8.10;87.90
20416;DHT22;10367;52.202;5.996;2023-02-28T15:05:27;8.10;86.50
20416;DHT22;10367;52.202;5.996;2023-02-28T15:08:06;8.00;82.10
20416;DHT22;10367;52.202;5.996;2023-02-28T15:10:35;7.90;80.00
20416;DHT22;10367;52.202;5.996;2023-02-28T15:13:07;7.90;82.70
20416;DHT22;10367;52.202;5.996;2023-02-28T15:15:45;7.90;83.50
20416;DHT22;10367;52.202;5.996;2023-02-28T15:18:44;7.80;83.20
20416;DHT22;10367;52.202;5.996;2023-02-28T15:21:16;7.90;82.80
20416;DHT22;10367;52.202;5.996;2023-02-28T15:23:49;7.80;83.00
20416;DHT22;10367;52.202;5.996;2023-02-28T15:26:23;7.80;83.00
20416;DHT22;10367;52.202;5.996;2023-02-28T15:28:59;7.70;81.60
20416;DHT22;10367;52.202;5.996;2023-02-28T15:31:31;7.70;84.40
20416;DHT22;10367;52.202;5.996;2023-02-28T15:34:22;7.60;81.30
20416;DHT22;10367;52.202;5.996;2023-02-28T15:36:59;7.40;82.40
20416;DHT22;10367;52.202;5.996;2023-02-28T15:39:29;7.40;83.10
20416;DHT22;10367;52.202;5.996;2023-02-28T15:42:10;7.40;84.80
20416;DHT22;10367;52.202;5.996;2023-02-28T15:44:41;7.50;84.50
20416;DHT22;10367;52.202;5.996;2023-02-28T15:47:17;7.40;85.80
20416;DHT22;10367;52.202;5.996;2023-02-28T15:49:49;7.40;85.80
20416;DHT22;10367;52.202;5.996;2023-02-28T15:52:22;7.30;83.70
20416;DHT22;10367;52.202;5.996;2023-02-28T15:54:52;7.20;84.30
20416;DHT22;10367;52.202;5.996;2023-02-28T15:57:25;7.20;85.80
20416;DHT22;10367;52.202;5.996;2023-02-28T15:59:58;7.10;85.40
20416;DHT22;10367;52.202;5.996;2023-02-28T16:02:32;7.10;86.10
20416;DHT22;10367;52.202;5.996;2023-02-28T16:05:23;7.00;86.50
20416;DHT22;10367;52.202;5.996;2023-02-28T16:07:59;6.90;86.10
20416;DHT22;10367;52.202;5.996;2023-02-28T16:10:29;6.90;86.40
20416;DHT22;10367;52.202;5.996;2023-02-28T16:12:58;6.80;85.70
20416;DHT22;10367;52.202;5.996;2023-02-28T16:15:29;6.70;86.90
20416;DHT22;10367;52.202;5.996;2023-02-28T16:18:00;6.60;87.30
20416;DHT22;10367;52.202;5.996;2023-02-28T16:20:30;6.60;88.30
20416;DHT22;10367;52.202;5.996;2023-02-28T16:22:59;6.50;89.00
20416;DHT22;10367;52.202;5.996;2023-02-28T16:25:35;6.50;88.90
20416;DHT22;10367;52.202;5.996;2023-02-28T16:28:05;6.40;89.40
20416;DHT22;10367;52.202;5.996;2023-02-28T16:30:39;6.30;89.70
20416;DHT22;10367;52.202;5.996;2023-02-28T16:33:07;6.30;90.20
20416;DHT22;10367;52.202;5.996;2023-02-28T16:35:36;6.10;90.10
20416;DHT22;10367;52.202;5.996;2023-02-28T16:38:05;6.10;90.10
20416;DHT22;10367;52.202;5.996;2023-02-28T16:40:35;6.00;90.20
20416;DHT22;10367;52.202;5.996;2023-02-28T16:43:06;5.90;90.80
20416;DHT22;10367;52.202;5.996;2023-02-28T16:45:38;5.80;90.50
20416;DHT22;10367;52.202;5.996;2023-02-28T16:48:10;5.70;91.00
20416;DHT22;10367;52.202;5.996;2023-02-28T16:50:41;5.60;91.20
20416;DHT22;10367;52.202;5.996;2023-02-28T16:53:10;5.50;91.50
20416;DHT22;10367;52.202;5.996;2023-02-28T16:55:39;5.50;91.80
20416;DHT22;10367;52.202;5.996;2023-02-28T16:58:14;5.40;91.70
20416;DHT22;10367;52.202;5.996;2023-02-28T17:00:46;5.30;91.80